Time;durP1;ratioP1;P1;durP2;ratioP2;P2;SDS_P1;SDS_P2;PMS_P1;PMS_P2;Temp;Humidity;BMP_temperature;BMP_pressure;BME280_temperature;BME280_humidity;BME280_pressure;Samples;Min_cycle;Max_cycle;Signal;HPM_P1;HPM_P2
2022/04/12 00:00:44;;;;;;;;;3.75;3.75;;;;;17.79;47.92;99919.13;4791282;29;46031;-77
2022/04/12 00:03:11;;;;;;;;;6.00;4.00;;;;;17.77;47.81;99915.81;4801102;29;45795;-76
2022/04/12 00:05:38;;;;;;;;;3.50;3.50;;;;;17.70;47.94;99906.94;4799070;29;46830;-77
2022/04/12 00:08:05;;;;;;;;;4.00;4.00;;;;;17.69;47.60;99897.31;4801556;29;46452;-76
2022/04/12 00:10:32;;;;;;;;;4.75;4.00;;;;;17.72;47.85;99912.88;4801140;29;45660;-77
2022/04/12 00:12:59;;;;;;;;;3.50;3.00;;;;;17.70;48.26;99909.56;4800805;29;45868;-77
2022/04/12 00:15:24;;;;;;;;;4.25;4.25;;;;;17.59;47.64;99898.38;4784366;29;46633;-77
2022/04/12 00:20:35;;;;;;;;;5.00;4.75;;;;;17.65;48.15;99914.56;4801463;29;45765;-75
2022/04/12 00:23:00;;;;;;;;;3.00;3.00;;;;;17.60;48.49;99905.28;4802510;29;45875;-78
2022/04/12 00:25:28;;;;;;;;;4.50;3.25;;;;;17.58;48.32;99909.09;4803310;29;46213;-77
2022/04/12 00:27:56;;;;;;;;;4.50;3.75;;;;;17.59;48.16;99918.69;4802103;29;47192;-77
2022/04/12 00:30:23;;;;;;;;;7.00;4.50;;;;;17.55;48.21;99923.50;4804162;29;45740;-78
2022/04/12 00:32:52;;;;;;;;;3.00;3.00;;;;;17.53;48.30;99920.19;4804174;29;45767;-78
2022/04/12 00:35:21;;;;;;;;;5.00;4.00;;;;;17.52;48.73;99925.66;4803637;29;46672;-77
2022/04/12 00:37:52;;;;;;;;;4.00;3.00;;;;;17.50;48.83;99919.69;4803350;29;46231;-78
2022/04/12 00:40:18;;;;;;;;;4.75;4.75;;;;;17.38;48.36;99900.69;4803672;29;45919;-77
2022/04/12 00:42:47;;;;;;;;;5.50;4.00;;;;;17.39;48.41;99898.88;4804035;29;46195;-78
2022/04/12 00:45:13;;;;;;;;;5.50;4.25;;;;;17.34;49.26;99885.31;4803683;29;47733;-77
2022/04/12 00:47:39;;;;;;;;;4.00;4.00;;;;;17.24;49.04;99868.81;4804051;29;45960;-78
2022/04/12 00:50:06;;;;;;;;;3.50;3.25;;;;;17.29;49.27;99880.53;4804013;29;46195;-77
2022/04/12 00:52:36;;;;;;;;;4.00;4.00;;;;;17.31;49.49;99888.31;4804247;29;45970;-77
2022/04/12 00:55:03;;;;;;;;;3.00;3.00;;;;;17.26;49.59;99886.19;4802911;29;46596;-77
2022/04/12 00:57:30;;;;;;;;;4.00;4.00;;;;;17.17;49.43;99876.59;4801441;29;46543;-75
2022/04/12 00:59:58;;;;;;;;;4.00;3.00;;;;;17.20;49.08;99886.84;4804059;29;47141;-77
2022/04/12 01:02:24;;;;;;;;;5.00;4.00;;;;;17.10;49.48;99881.75;4787472;29;45735;-77
2022/04/12 01:04:50;;;;;;;;;5.25;5.00;;;;;17.14;49.69;99895.47;4803087;29;46331;-77
2022/04/12 01:07:16;;;;;;;;;6.00;5.00;;;;;17.11;49.77;99888.69;4803641;29;45974;-77
2022/04/12 01:09:42;;;;;;;;;6.25;4.00;;;;;17.09;50.11;99884.56;4803061;29;45916;-79
2022/04/12 01:12:09;;;;;;;;;4.00;4.00;;;;;17.04;49.67;99873.66;4804295;29;45742;-78
2022/04/12 01:14:35;;;;;;;;;3.50;3.25;;;;;16.93;49.50;99866.06;4801739;29;46133;-77
2022/04/12 01:17:05;;;;;;;;;3.00;3.00;;;;;16.98;49.96;99880.44;4803538;29;47245;-77
2022/04/12 01:19:31;;;;;;;;;4.00;4.00;;;;;16.83;49.83;99862.78;4803326;29;45823;-78
2022/04/12 01:22:05;;;;;;;;;3.00;3.00;;;;;16.92;49.75;99885.56;4803918;29;45739;-78
2022/04/12 01:24:32;;;;;;;;;5.00;4.00;;;;;16.90;50.36;99888.38;4799936;29;46701;-78
2022/04/12 01:26:59;;;;;;;;;6.00;4.50;;;;;16.88;49.89;99895.69;4802969;29;46118;-78
2022/04/12 01:29:25;;;;;;;;;4.75;4.75;;;;;16.85;50.30;99882.78;4803226;29;45712;-77
2022/04/12 01:31:51;;;;;;;;;4.50;4.00;;;;;16.82;50.46;99879.63;4801968;29;45713;-78
2022/04/12 01:34:16;;;;;;;;;3.50;3.00;;;;;16.82;50.48;99882.28;4802614;29;46575;-78
2022/04/12 01:36:42;;;;;;;;;5.00;4.00;;;;;16.71;50.81;99868.41;4802724;29;45772;-78
2022/04/12 01:39:07;;;;;;;;;5.00;4.25;;;;;16.65;50.63;99865.59;4803562;29;45675;-77
2022/04/12 01:41:32;;;;;;;;;4.25;4.00;;;;;16.71;50.84;99886.09;4803557;29;45788;-78
2022/04/12 01:43:58;;;;;;;;;3.75;3.75;;;;;16.67;50.95;99900.66;4802821;29;46383;-77
2022/04/12 01:46:23;;;;;;;;;2.75;2.75;;;;;16.51;50.97;99868.88;4802937;29;46031;-77
2022/04/12 01:48:49;;;;;;;;;4.00;3.00;;;;;16.55;50.94;99896.66;4802592;29;46226;-77
2022/04/12 01:51:16;;;;;;;;;4.75;4.00;;;;;16.57;51.02;99910.53;4803768;29;45936;-78
2022/04/12 01:53:42;;;;;;;;;5.00;3.50;;;;;16.54;50.97;99910.84;4802384;29;46344;-78
2022/04/12 01:56:07;;;;;;;;;4.25;4.00;;;;;16.52;51.08;99913.66;4802683;29;45788;-77
2022/04/12 01:58:33;;;;;;;;;4.00;4.00;;;;;16.22;50.91;99854.31;4802536;29;46095;-78
2022/04/12 02:00:59;;;;;;;;;3.75;3.75;;;;;16.45;51.07;99888.03;4803317;29;46297;-76
2022/04/12 02:03:24;;;;;;;;;4.25;4.25;;;;;16.50;51.24;99891.84;4802720;29;45940;-78
2022/04/12 02:05:51;;;;;;;;;4.00;3.00;;;;;16.47;51.28;99888.69;4800868;29;46022;-77
2022/04/12 02:08:17;;;;;;;;;5.00;4.00;;;;;16.50;51.23;99893.66;4803040;29;45804;-77
2022/04/12 02:10:42;;;;;;;;;4.25;4.00;;;;;16.46;51.22;99890.53;4803295;29;45796;-76
2022/04/12 02:13:07;;;;;;;;;5.00;5.00;;;;;16.49;51.38;99886.72;4802282;29;46458;-78
2022/04/12 02:15:33;;;;;;;;;6.00;5.00;;;;;16.46;51.26;99879.97;4799807;29;47357;-77
2022/04/12 02:17:58;;;;;;;;;5.75;5.75;;;;;16.41;51.01;99870.88;4803104;29;46821;-78
2022/04/12 02:20:24;;;;;;;;;4.50;4.50;;;;;16.43;51.20;99879.44;4802680;29;46051;-78
2022/04/12 02:22:50;;;;;;;;;3.00;3.00;;;;;16.41;51.34;99868.22;4800579;29;45714;-78
2022/04/12 02:25:16;;;;;;;;;4.75;4.75;;;;;16.42;51.32;99872.50;4801897;29;46220;-77
2022/04/12 02:27:41;;;;;;;;;4.00;4.00;;;;;16.40;51.45;99871.84;4802188;29;45818;-77
2022/04/12 02:30:08;;;;;;;;;5.75;5.25;;;;;16.31;51.37;99866.53;4803075;29;45646;-77
2022/04/12 02:32:34;;;;;;;;;4.75;4.50;;;;;16.27;51.43;99853.81;4802598;29;45812;-76
2022/04/12 02:35:00;;;;;;;;;5.75;4.75;;;;;16.33;51.44;99871.69;4800396;29;45904;-77
2022/04/12 02:37:27;;;;;;;;;1.00;1.00;;;;;16.32;51.46;99880.59;4786030;29;45780;-78
2022/04/12 02:39:52;;;;;;;;;4.00;4.00;;;;;16.30;51.18;99888.69;4801807;29;45677;-78
2022/04/12 02:42:18;;;;;;;;;5.25;4.50;;;;;16.26;51.25;99882.06;4802092;29;45925;-79
2022/04/12 02:44:43;;;;;;;;;3.50;3.50;;;;;16.30;51.16;99885.22;4801101;29;45863;-79
2022/04/12 02:47:08;;;;;;;;;5.00;4.25;;;;;16.27;51.36;99878.44;4802322;29;45735;-76
2022/04/12 02:49:34;;;;;;;;;4.50;4.00;;;;;16.28;51.33;99885.38;4802753;29;46085;-76
2022/04/12 02:51:59;;;;;;;;;4.50;3.00;;;;;16.23;51.33;99878.94;4800020;29;46539;-76
2022/04/12 02:54:25;;;;;;;;;5.00;5.00;;;;;16.25;51.50;99880.41;4801499;29;45844;-77
2022/04/12 02:56:50;;;;;;;;;5.75;5.00;;;;;16.18;51.34;99860.09;4801052;29;45798;-78
2022/04/12 02:59:15;;;;;;;;;4.75;4.00;;;;;16.22;51.43;99878.09;4801821;29;45826;-76
2022/04/12 03:01:41;;;;;;;;;2.75;2.00;;;;;16.22;51.52;99886.03;4801049;29;45660;-78
2022/04/12 03:04:06;;;;;;;;;4.00;4.00;;;;;16.19;51.35;99869.69;4801048;29;45855;-77
2022/04/12 03:06:32;;;;;;;;;4.75;3.75;;;;;16.14;51.27;99851.66;4802142;29;45901;-77
2022/04/12 03:08:57;;;;;;;;;4.00;4.00;;;;;16.14;51.31;99853.50;4801697;29;45766;-75
2022/04/12 03:11:22;;;;;;;;;2.75;2.00;;;;;16.15;51.15;99845.38;4801499;29;45626;-77
2022/04/12 03:13:48;;;;;;;;;4.00;4.00;;;;;16.13;51.28;99843.91;4799736;29;47184;-77
2022/04/12 03:16:14;;;;;;;;;4.75;4.00;;;;;16.00;51.14;99825.88;4801715;29;46019;-76
2022/04/12 03:18:39;;;;;;;;;4.50;4.00;;;;;16.00;51.23;99822.41;4802408;29;46017;-78
2022/04/12 03:21:04;;;;;;;;;4.00;3.00;;;;;16.03;51.31;99830.03;4801696;29;46937;-77
2022/04/12 03:23:30;;;;;;;;;3.00;3.00;;;;;16.06;51.18;99849.00;4802136;29;46897;-76
2022/04/12 03:25:55;;;;;;;;;4.00;4.00;;;;;16.04;51.24;99850.97;4802543;29;45674;-79
2022/04/12 03:28:20;;;;;;;;;5.00;4.00;;;;;15.95;51.10;99825.53;4802377;29;45767;-78
2022/04/12 03:30:46;;;;;;;;;3.25;3.25;;;;;16.02;51.09;99850.34;4804401;29;45987;-77
2022/04/12 03:33:11;;;;;;;;;4.00;4.00;;;;;15.93;51.44;99823.06;4785829;29;47628;-77
2022/04/12 03:35:37;;;;;;;;;3.00;3.00;;;;;15.97;51.25;99834.13;4804632;29;45632;-78
2022/04/12 03:38:02;;;;;;;;;3.25;3.25;;;;;15.95;50.96;99833.47;4788745;29;45863;-77
2022/04/12 03:40:31;;;;;;;;;4.00;4.00;;;;;15.90;51.45;99847.16;4807357;29;45721;-77
2022/04/12 03:43:08;;;;;;;;;5.00;4.00;;;;;15.90;51.37;99855.09;4808341;29;46009;-75
2022/04/12 03:45:34;;;;;;;;;4.50;4.00;;;;;15.95;51.14;99871.28;4808811;29;46112;-77
2022/04/12 03:48:00;;;;;;;;;4.25;4.00;;;;;15.93;51.13;99877.69;4805153;29;45932;-77
2022/04/12 03:50:26;;;;;;;;;3.50;3.50;;;;;15.92;50.98;99879.50;4806744;29;45756;-79
2022/04/12 03:52:52;;;;;;;;;2.50;2.50;;;;;15.92;51.06;99868.94;4807157;29;46110;-78
2022/04/12 03:55:30;;;;;;;;;4.00;4.00;;;;;15.89;51.03;99866.63;4796419;29;45683;-78
2022/04/12 03:58:00;;;;;;;;;4.50;3.00;;;;;15.92;51.23;99868.16;4821524;29;45566;-78
2022/04/12 04:00:26;;;;;;;;;4.75;3.75;;;;;15.91;51.18;99855.91;4816333;29;45644;-77
2022/04/12 04:02:52;;;;;;;;;4.00;3.25;;;;;15.83;51.00;99838.22;4819478;29;46350;-77
2022/04/12 04:05:17;;;;;;;;;4.00;3.50;;;;;15.87;50.94;99846.66;4821017;29;45341;-76
2022/04/12 04:07:43;;;;;;;;;4.00;4.00;;;;;15.87;50.68;99852.75;4813399;29;45963;-79
2022/04/12 04:10:09;;;;;;;;;4.00;4.00;;;;;15.80;50.82;99849.13;4805568;29;45626;-78
2022/04/12 04:12:34;;;;;;;;;3.00;3.00;;;;;15.81;50.74;99852.59;4806063;29;47963;-77
2022/04/12 04:15:00;;;;;;;;;3.50;3.00;;;;;15.77;50.45;99864.44;4807956;29;45696;-78
2022/04/12 04:17:26;;;;;;;;;2.75;2.25;;;;;15.77;50.39;99853.88;4821216;29;45659;-79
2022/04/12 04:19:51;;;;;;;;;3.00;3.00;;;;;15.75;50.48;99862.00;4820845;29;45895;-78
2022/04/12 04:22:16;;;;;;;;;3.00;2.25;;;;;15.69;50.10;99851.22;4805749;29;46812;-76
2022/04/12 04:24:42;;;;;;;;;3.00;3.00;;;;;15.60;50.16;99845.06;4804325;29;45723;-77
2022/04/12 04:27:08;;;;;;;;;3.00;3.00;;;;;15.69;50.27;99875.84;4804757;29;45755;-78
2022/04/12 04:29:35;;;;;;;;;3.00;3.00;;;;;15.68;50.04;99870.69;4805487;29;46532;-78
2022/04/12 04:32:01;;;;;;;;;3.00;2.75;;;;;15.65;50.30;99871.84;4806916;29;46514;-77
2022/04/12 04:34:26;;;;;;;;;5.00;3.25;;;;;15.60;50.13;99868.03;4806788;29;45895;-78
2022/04/12 04:36:52;;;;;;;;;4.25;3.00;;;;;15.56;50.17;99866.69;4806562;29;45591;-78
2022/04/12 04:39:17;;;;;;;;;3.00;3.00;;;;;15.60;50.00;99881.25;4806825;29;45684;-78
2022/04/12 04:41:42;;;;;;;;;3.00;2.50;;;;;15.57;50.05;99882.38;4812423;29;46246;-77
2022/04/12 04:44:08;;;;;;;;;3.00;3.00;;;;;15.56;49.97;99874.59;4805049;29;45969;-78
2022/04/12 04:46:34;;;;;;;;;2.00;2.00;;;;;15.53;50.16;99873.13;4788697;29;45994;-77
2022/04/12 04:48:59;;;;;;;;;4.00;4.00;;;;;15.55;50.29;99881.69;4806213;29;46275;-77
2022/04/12 04:51:25;;;;;;;;;3.00;3.00;;;;;15.46;50.11;99872.91;4804307;29;45736;-75
2022/04/12 04:53:57;;;;;;;;;5.50;4.00;;;;;15.53;50.13;99883.69;4802557;29;46238;-78
2022/04/12 04:56:23;;;;;;;;;2.50;2.25;;;;;15.51;50.21;99891.75;4780993;29;45685;-77
2022/04/12 04:58:48;;;;;;;;;3.75;3.00;;;;;15.46;50.31;99882.63;4803857;29;46388;-76
2022/04/12 05:01:14;;;;;;;;;2.00;2.00;;;;;15.48;50.07;99886.78;4804441;29;46170;-77
2022/04/12 05:03:39;;;;;;;;;3.00;3.00;;;;;15.44;49.93;99889.88;4803827;29;46349;-78
2022/04/12 05:06:04;;;;;;;;;3.75;3.00;;;;;15.31;50.13;99865.72;4806432;29;45693;-79
2022/04/12 05:08:30;;;;;;;;;3.00;3.00;;;;;15.45;50.10;99888.88;4803254;29;45979;-81
2022/04/12 05:10:55;;;;;;;;;3.50;3.00;;;;;15.34;50.41;99892.63;4802254;29;45963;-78
2022/04/12 05:13:21;;;;;;;;;6.75;5.50;;;;;15.42;50.27;99902.41;4802880;29;45814;-79
2022/04/12 05:15:46;;;;;;;;;4.75;4.00;;;;;15.41;50.25;99906.03;4804462;29;45842;-79
2022/04/12 05:18:12;;;;;;;;;5.00;3.25;;;;;15.19;50.38;99878.38;4803874;29;45745;-79
2022/04/12 05:20:38;;;;;;;;;3.50;3.00;;;;;15.38;50.54;99922.19;4804310;29;46768;-77
2022/04/12 05:23:03;;;;;;;;;7.00;4.75;;;;;15.32;50.40;99913.09;4803895;29;45631;-80
2022/04/12 05:25:29;;;;;;;;;2.75;2.75;;;;;15.33;50.44;99908.63;4802961;29;46224;-78
2022/04/12 05:27:55;;;;;;;;;5.00;4.00;;;;;15.28;50.28;99905.63;4802316;29;46771;-77
2022/04/12 05:30:21;;;;;;;;;4.00;3.75;;;;;15.32;50.39;99915.72;4802600;29;46603;-79
2022/04/12 05:32:47;;;;;;;;;6.50;4.25;;;;;15.37;50.35;99923.19;4803866;29;45834;-77
2022/04/12 05:35:13;;;;;;;;;5.00;4.00;;;;;15.32;50.51;99914.91;4803080;29;45751;-76
2022/04/12 05:37:49;;;;;;;;;4.25;4.00;;;;;15.40;50.69;99918.41;4802744;29;45763;-76
2022/04/12 05:40:15;;;;;;;;;5.00;4.25;;;;;15.37;50.63;99909.97;4799952;29;46460;-82
2022/04/12 05:42:41;;;;;;;;;4.50;4.50;;;;;15.43;50.79;99909.34;4799385;29;45588;-76
2022/04/12 05:45:08;;;;;;;;;4.25;4.25;;;;;15.39;50.79;99913.25;4795403;29;45907;-76
2022/04/12 05:47:51;;;;;;;;;3.00;3.00;;;;;15.46;50.46;99922.22;4795599;29;45788;-78
2022/04/12 05:50:18;;;;;;;;;6.75;4.50;;;;;15.43;50.65;99919.91;4794705;29;47369;-79
2022/04/12 05:52:44;;;;;;;;;5.50;4.00;;;;;15.47;50.40;99923.88;4802904;29;45629;-77
2022/04/12 05:55:12;;;;;;;;;3.50;3.00;;;;;15.34;50.68;99907.63;4799414;29;45959;-77
2022/04/12 05:57:46;;;;;;;;;4.75;4.50;;;;;15.49;50.53;99933.28;4796988;29;47432;-78
2022/04/12 06:00:12;;;;;;;;;4.50;3.25;;;;;15.48;50.58;99929.00;4792391;29;46461;-77
2022/04/12 06:02:37;;;;;;;;;6.75;5.00;;;;;15.45;50.37;99929.31;4796080;29;45820;-77
2022/04/12 06:05:03;;;;;;;;;5.00;4.00;;;;;15.55;50.21;99938.97;4793948;29;46198;-77
2022/04/12 06:07:31;;;;;;;;;5.00;4.00;;;;;15.56;50.36;99943.25;4794712;29;45750;-79
2022/04/12 06:09:56;;;;;;;;;5.00;4.00;;;;;15.50;50.36;99934.13;4802164;29;46105;-79
2022/04/12 06:12:22;;;;;;;;;5.25;5.00;;;;;15.50;50.02;99931.47;4801799;29;45770;-78
2022/04/12 06:14:47;;;;;;;;;4.25;4.00;;;;;15.57;49.96;99939.63;4801885;29;45649;-81
2022/04/12 06:17:13;;;;;;;;;6.75;5.00;;;;;15.63;50.04;99936.38;4800385;29;46568;-79
2022/04/12 06:19:38;;;;;;;;;5.00;4.25;;;;;15.64;49.70;99933.56;4797408;29;46143;-79
2022/04/12 06:22:04;;;;;;;;;5.25;4.25;;;;;15.59;49.80;99933.22;4803451;29;45990;-79
2022/04/12 06:24:29;;;;;;;;;5.75;5.00;;;;;15.65;49.81;99951.09;4803062;29;46066;-78
2022/04/12 06:26:54;;;;;;;;;3.50;3.50;;;;;15.48;49.56;99922.91;4803084;29;46311;-77
2022/04/12 06:29:20;;;;;;;;;6.50;6.00;;;;;15.64;49.74;99938.03;4786791;29;47153;-77
2022/04/12 06:31:45;;;;;;;;;4.75;4.25;;;;;15.62;49.50;99946.09;4803113;29;45678;-78
2022/04/12 06:34:10;;;;;;;;;5.00;5.00;;;;;15.65;49.61;99956.38;4802494;29;45820;-79
2022/04/12 06:36:36;;;;;;;;;5.00;4.75;;;;;15.68;49.65;99958.69;4796533;29;46949;-81
2022/04/12 06:39:01;;;;;;;;;5.00;5.00;;;;;15.73;49.59;99971.41;4799090;29;46003;-77
2022/04/12 06:41:27;;;;;;;;;4.00;3.00;;;;;15.76;49.36;99974.56;4803018;29;45734;-79
2022/04/12 06:43:52;;;;;;;;;4.50;4.50;;;;;15.77;49.28;99983.31;4800186;29;45659;-78
2022/04/12 06:46:17;;;;;;;;;4.50;3.25;;;;;15.80;49.21;99983.84;4803299;29;47380;-80
2022/04/12 06:48:43;;;;;;;;;6.00;4.00;;;;;15.78;49.07;99977.03;4802814;29;46243;-78
2022/04/12 06:51:08;;;;;;;;;6.00;5.00;;;;;15.73;48.83;99976.69;4786563;29;45841;-80
2022/04/12 06:53:34;;;;;;;;;5.75;4.25;;;;;15.83;48.78;99998.53;4797091;29;45698;-77
2022/04/12 06:56:00;;;;;;;;;4.75;3.75;;;;;15.73;48.74;99974.88;4801446;29;45766;-81
2022/04/12 06:58:25;;;;;;;;;4.75;4.75;;;;;15.85;48.73;100004.50;4802828;29;45939;-80
2022/04/12 07:00:50;;;;;;;;;4.75;3.50;;;;;15.80;48.50;100007.59;4786607;29;45729;-78
2022/04/12 07:03:16;;;;;;;;;4.00;4.00;;;;;15.87;48.35;100021.03;4801711;29;45707;-77
2022/04/12 07:05:41;;;;;;;;;5.00;5.00;;;;;15.72;48.20;99996.16;4798719;29;46428;-79
2022/04/12 07:08:07;;;;;;;;;9.25;9.00;;;;;15.82;48.33;100002.97;4786912;29;45891;-74
2022/04/12 07:10:32;;;;;;;;;4.25;4.00;;;;;15.70;48.29;99995.50;4796746;29;45945;-78
2022/04/12 07:12:57;;;;;;;;;3.00;3.00;;;;;15.87;48.08;100037.69;4797924;29;45965;-80
2022/04/12 07:15:23;;;;;;;;;5.00;4.00;;;;;15.87;48.34;100037.69;4802599;29;46489;-79
2022/04/12 07:17:48;;;;;;;;;4.00;3.00;;;;;15.88;48.21;100047.25;4802666;29;46058;-79
2022/04/12 07:20:14;;;;;;;;;4.25;4.00;;;;;15.85;48.18;100036.19;4803267;29;45882;-79
2022/04/12 07:22:39;;;;;;;;;4.00;3.75;;;;;15.80;48.32;100034.03;4786141;29;45907;-79
2022/04/12 07:25:05;;;;;;;;;4.00;4.00;;;;;15.93;48.25;100044.16;4802403;29;46523;-78
2022/04/12 07:27:37;;;;;;;;;4.50;4.00;;;;;15.93;48.08;100038.88;4798170;29;47250;-78
2022/04/12 07:30:07;;;;;;;;;4.00;4.00;;;;;15.97;47.98;100044.69;4802766;29;45864;-78
2022/04/12 07:32:32;;;;;;;;;5.50;4.50;;;;;15.99;47.91;100047.97;4805097;29;45628;-78
2022/04/12 07:34:58;;;;;;;;;3.25;3.00;;;;;15.97;47.83;100040.22;4804913;29;45872;-79
2022/04/12 07:37:23;;;;;;;;;3.00;3.00;;;;;16.02;47.81;100056.44;4805794;29;45825;-79
2022/04/12 07:39:49;;;;;;;;;4.25;3.75;;;;;16.06;47.66;100054.31;4805746;29;46348;-79
2022/04/12 07:42:15;;;;;;;;;4.00;3.50;;;;;16.08;47.65;100047.06;4805800;29;45806;-78
2022/04/12 07:44:41;;;;;;;;;3.00;3.00;;;;;16.11;47.57;100042.28;4797815;29;46494;-80
2022/04/12 07:47:06;;;;;;;;;3.75;2.75;;;;;16.14;47.74;100043.78;4801968;29;46114;-80
2022/04/12 07:49:32;;;;;;;;;3.50;2.75;;;;;16.13;47.56;100039.47;4805731;29;45730;-79
2022/04/12 07:51:57;;;;;;;;;5.00;5.00;;;;;16.21;47.77;100053.53;4805314;29;45825;-79
2022/04/12 07:54:23;;;;;;;;;5.50;3.00;;;;;16.11;47.34;100023.78;4804728;29;46373;-80
2022/04/12 07:56:48;;;;;;;;;4.25;4.00;;;;;16.30;47.26;100047.28;4804824;29;45661;-79
2022/04/12 07:59:13;;;;;;;;;4.00;3.00;;;;;16.35;47.37;100045.03;4805338;29;45684;-79
2022/04/12 08:01:39;;;;;;;;;3.00;3.00;;;;;16.39;47.42;100034.94;4800090;29;45716;-78
2022/04/12 08:04:04;;;;;;;;;4.00;3.00;;;;;16.43;47.45;100033.63;4804384;29;45740;-79
2022/04/12 08:06:30;;;;;;;;;3.75;3.50;;;;;16.48;46.94;100036.63;4805292;29;45706;-78
2022/04/12 08:08:55;;;;;;;;;6.75;4.00;;;;;16.41;47.08;100013.66;4805278;29;46357;-78
2022/04/12 08:11:20;;;;;;;;;4.00;3.00;;;;;16.56;46.95;100028.72;4805545;29;45784;-79
2022/04/12 08:13:46;;;;;;;;;6.00;5.75;;;;;16.60;46.86;100022.16;4804715;29;45680;-79
2022/04/12 08:16:15;;;;;;;;;3.25;3.25;;;;;16.63;47.43;100019.16;4804889;29;45744;-79
2022/04/12 08:18:41;;;;;;;;;3.00;2.00;;;;;16.67;46.77;100023.16;4797490;29;45813;-80
2022/04/12 08:21:07;;;;;;;;;3.50;2.75;;;;;16.75;46.79;100030.28;4800111;29;45571;-80
2022/04/12 08:23:32;;;;;;;;;3.00;3.00;;;;;16.71;46.53;100021.00;4802600;29;45944;-78
2022/04/12 08:25:58;;;;;;;;;3.50;3.50;;;;;16.73;46.63;100016.41;4804741;29;45613;-79
2022/04/12 08:28:23;;;;;;;;;5.00;4.00;;;;;16.81;46.51;100029.63;4805253;29;45763;-79
2022/04/12 08:30:48;;;;;;;;;4.00;3.25;;;;;16.81;46.62;100013.75;4788222;29;45747;-80
2022/04/12 08:33:14;;;;;;;;;4.75;4.00;;;;;16.91;46.34;100019.72;4804142;29;45833;-80
2022/04/12 08:35:40;;;;;;;;;4.00;3.00;;;;;17.05;46.49;100034.94;4797876;29;46066;-79
2022/04/12 08:38:05;;;;;;;;;2.75;2.00;;;;;17.07;46.24;100030.31;4804237;29;46039;-80
2022/04/12 08:40:31;;;;;;;;;3.00;3.00;;;;;17.12;45.77;100029.81;4804573;29;45642;-79
2022/04/12 08:42:58;;;;;;;;;3.00;2.75;;;;;17.19;45.81;100030.81;4802458;29;46477;-77
2022/04/12 08:45:25;;;;;;;;;3.00;2.00;;;;;17.18;45.89;100026.50;4804132;29;46286;-79
2022/04/12 08:47:51;;;;;;;;;4.00;3.00;;;;;17.27;45.41;100030.00;4804685;29;46032;-78
2022/04/12 08:50:19;;;;;;;;;2.00;2.00;;;;;17.29;45.38;100023.53;4804611;29;45635;-77
2022/04/12 08:52:46;;;;;;;;;3.00;1.00;;;;;17.32;44.69;100020.56;4802823;29;46936;-79
2022/04/12 08:55:12;;;;;;;;;2.00;2.00;;;;;17.37;44.85;100012.94;4804012;29;46227;-81
2022/04/12 08:57:38;;;;;;;;;2.00;1.75;;;;;17.43;44.29;100017.56;4804547;29;45667;-80
2022/04/12 09:00:05;;;;;;;;;2.75;1.50;;;;;17.52;44.49;100029.78;4803470;29;45813;-77
2022/04/12 09:02:31;;;;;;;;;3.25;2.00;;;;;17.45;44.32;100009.44;4804217;29;46570;-76
2022/04/12 09:04:57;;;;;;;;;2.00;1.75;;;;;17.60;44.15;100039.56;4803148;29;46064;-80
2022/04/12 09:07:25;;;;;;;;;2.75;2.00;;;;;17.71;43.84;100033.91;4802700;29;45722;-79
2022/04/12 09:09:51;;;;;;;;;1.00;1.00;;;;;17.78;43.90;100036.72;4797818;29;46745;-77
2022/04/12 09:12:17;;;;;;;;;1.75;1.75;;;;;17.80;43.62;100029.44;4804650;29;46549;-77
2022/04/12 09:14:43;;;;;;;;;2.00;1.00;;;;;17.88;43.70;100018.81;4804435;29;46171;-78
2022/04/12 09:17:19;;;;;;;;;1.00;1.00;;;;;17.89;43.02;100018.66;4788380;29;45812;-80
2022/04/12 09:19:45;;;;;;;;;3.00;2.00;;;;;17.95;43.20;100025.09;4804116;29;45746;-80
2022/04/12 09:22:16;;;;;;;;;1.25;1.25;;;;;17.81;43.47;99994.84;4804976;29;46349;-81
2022/04/12 09:24:44;;;;;;;;;1.00;1.00;;;;;18.06;43.48;100027.38;4802054;29;47076;-78
2022/04/12 09:27:14;;;;;;;;;2.00;2.00;;;;;17.98;43.19;100008.81;4787572;29;45661;-78
2022/04/12 09:29:46;;;;;;;;;2.00;2.00;;;;;18.15;43.47;100021.03;4803601;29;45623;-75
2022/04/12 09:32:14;;;;;;;;;1.00;1.00;;;;;18.21;43.26;100025.66;4803778;29;46533;-74
2022/04/12 09:34:41;;;;;;;;;3.00;2.00;;;;;18.18;42.97;100002.16;4802734;29;46109;-79
2022/04/12 09:37:36;;;;;;;;;2.00;1.00;;;;;18.34;43.00;100011.84;4804268;29;45644;-79
2022/04/12 09:40:02;;;;;;;;;1.00;1.00;;;;;18.37;42.88;100014.13;4758498;29;45716;-79
2022/04/12 09:42:49;;;;;;;;;2.00;1.75;;;;;18.43;42.89;100018.75;4762439;29;46109;-78
2022/04/12 09:45:22;;;;;;;;;2.25;2.00;;;;;18.49;42.92;100019.88;4759376;29;47041;-78
2022/04/12 09:47:49;;;;;;;;;2.25;1.50;;;;;18.44;42.69;99992.06;4765373;29;45754;-80
2022/04/12 09:50:14;;;;;;;;;2.00;2.00;;;;;18.54;43.24;99994.50;4765389;29;45742;-78
2022/04/12 09:52:55;;;;;;;;;1.50;1.00;;;;;18.64;42.68;100002.25;4765480;29;46430;-80
2022/04/12 09:55:38;;;;;;;;;1.75;1.50;;;;;18.69;42.97;100005.19;4765508;29;46013;-77
2022/04/12 09:58:09;;;;;;;;;2.00;2.00;;;;;18.68;42.73;99992.91;4765477;29;46033;-80
2022/04/12 10:00:36;;;;;;;;;2.00;2.00;;;;;18.68;43.11;99987.59;4765169;29;45902;-79
2022/04/12 10:03:06;;;;;;;;;2.00;1.00;;;;;18.80;42.57;100018.06;4764361;29;45703;-76
2022/04/12 10:05:32;;;;;;;;;2.50;2.00;;;;;18.81;42.95;100012.56;4764777;29;47313;-79
2022/04/12 10:07:58;;;;;;;;;3.00;2.00;;;;;18.88;42.40;100014.53;4764846;29;45632;-76
2022/04/12 10:10:27;;;;;;;;;3.75;2.50;;;;;18.80;42.74;99988.84;4765284;29;45726;-78
2022/04/12 10:12:54;;;;;;;;;3.50;2.00;;;;;18.96;42.72;100003.84;4763982;29;46408;-78
2022/04/12 10:15:24;;;;;;;;;2.00;2.00;;;;;18.99;42.78;99999.00;4765524;29;45929;-78
2022/04/12 10:17:50;;;;;;;;;3.00;2.25;;;;;19.02;42.78;99972.09;4798604;29;46096;-78
2022/04/12 10:20:18;;;;;;;;;3.75;2.00;;;;;19.10;42.93;99972.03;4786950;29;46150;-77
2022/04/12 10:22:45;;;;;;;;;2.00;2.00;;;;;19.15;42.54;99972.31;4802515;29;47805;-78
2022/04/12 10:25:19;;;;;;;;;2.75;2.75;;;;;19.21;42.43;99971.59;4803389;29;46368;-77
2022/04/12 10:27:46;;;;;;;;;3.25;2.00;;;;;19.26;42.36;99968.41;4803135;29;46032;-77
2022/04/12 10:30:28;;;;;;;;;1.75;1.75;;;;;19.34;42.40;99970.13;4803258;29;45738;-78
2022/04/12 10:33:01;;;;;;;;;3.00;2.50;;;;;19.39;42.77;99962.44;4802622;29;46386;-79
2022/04/12 10:35:54;;;;;;;;;2.00;1.75;;;;;19.33;42.96;99928.63;4802240;29;46259;-80
2022/04/12 10:38:24;;;;;;;;;0.00;0.00;;;;;19.51;42.04;99959.22;4793614;29;46062;-79
2022/04/12 10:41:00;;;;;;;;;1.50;1.00;;;;;19.49;42.32;99968.34;4803069;29;45959;-78
2022/04/12 10:43:35;;;;;;;;;3.75;2.50;;;;;19.62;42.15;99979.19;4801906;29;46515;-79
2022/04/12 10:46:03;;;;;;;;;4.00;3.00;;;;;19.67;41.95;99982.94;4802898;29;47319;-77
2022/04/12 10:48:31;;;;;;;;;2.00;2.00;;;;;19.73;42.00;99986.72;4802637;29;45772;-79
2022/04/12 10:51:01;;;;;;;;;1.50;1.50;;;;;19.74;42.01;99977.72;4800411;29;45845;-79
2022/04/12 10:53:38;;;;;;;;;5.25;3.00;;;;;19.85;41.83;99995.88;4797013;29;45778;-76
2022/04/12 10:56:11;;;;;;;;;4.25;2.25;;;;;19.89;41.47;99994.50;4802989;29;46016;-78
2022/04/12 10:58:37;;;;;;;;;4.00;2.50;;;;;19.87;41.69;99983.22;4786220;29;45964;-79
2022/04/12 11:01:08;;;;;;;;;2.75;2.00;;;;;19.96;41.15;99994.59;4803037;29;45925;-78
2022/04/12 11:03:46;;;;;;;;;2.75;2.75;;;;;20.01;41.78;100005.50;4801676;29;46724;-78
2022/04/12 11:06:22;;;;;;;;;2.75;2.00;;;;;20.04;41.14;100013.09;4802329;29;45750;-78
2022/04/12 11:08:50;;;;;;;;;2.75;2.25;;;;;20.08;41.45;100022.38;4800961;29;45722;-79
2022/04/12 11:11:39;;;;;;;;;3.00;3.00;;;;;20.13;41.19;100034.09;4803013;29;46238;-79
2022/04/12 11:14:25;;;;;;;;;3.25;3.00;;;;;20.16;41.31;100026.75;4785591;29;45901;-78
2022/04/12 11:16:56;;;;;;;;;2.00;2.00;;;;;20.22;41.30;100031.34;4802964;29;46296;-80
2022/04/12 11:19:23;;;;;;;;;1.50;1.25;;;;;20.24;40.98;100027.50;4802773;29;45604;-79
2022/04/12 11:21:49;;;;;;;;;2.75;1.75;;;;;20.28;41.23;100026.13;4802806;29;45639;-80
2022/04/12 11:24:16;;;;;;;;;3.25;2.25;;;;;20.25;41.21;100013.16;4802370;29;46805;-79
2022/04/12 11:26:47;;;;;;;;;3.00;2.50;;;;;20.38;41.10;100036.50;4795576;29;45715;-78
2022/04/12 11:29:15;;;;;;;;;3.25;3.00;;;;;20.38;41.13;100033.84;4803426;29;45591;-77
2022/04/12 11:31:43;;;;;;;;;2.25;2.25;;;;;20.44;40.98;100030.44;4803022;29;45795;-79
2022/04/12 11:34:09;;;;;;;;;2.75;2.00;;;;;20.47;40.78;100022.06;4801966;29;46482;-79